Time;durP1;ratioP1;P1;durP2;ratioP2;P2;SDS_P1;SDS_P2;PMS_P1;PMS_P2;Temp;Humidity;BMP_temperature;BMP_pressure;BME280_temperature;BME280_humidity;BME280_pressure;Samples;Min_cycle;Max_cycle;Signal;HPM_P1;HPM_P2
2022/04/23 00:00:07;;;;;;;30.50;27.20;;;13.10;72.90;;;;;;5115856;27;20063;-49
2022/04/23 00:02:33;;;;;;;32.17;28.60;;;13.00;73.00;;;;;;5129851;27;20098;-55
2022/04/23 00:04:59;;;;;;;34.72;31.00;;;13.10;73.20;;;;;;5127301;27;20057;-57
2022/04/23 00:07:26;;;;;;;37.53;30.88;;;13.10;73.10;;;;;;5126667;27;20043;-54
2022/04/23 00:09:51;;;;;;;35.67;31.55;;;13.10;73.00;;;;;;5130417;27;20030;-59
2022/04/23 00:12:19;;;;;;;36.70;32.15;;;13.10;73.00;;;;;;5129597;27;20026;-57
2022/04/23 00:14:45;;;;;;;36.97;32.33;;;13.10;73.20;;;;;;5129848;27;20015;-56
2022/04/23 00:17:11;;;;;;;37.10;32.92;;;13.10;73.20;;;;;;5111528;27;20026;-53
2022/04/23 00:19:37;;;;;;;35.92;31.98;;;13.20;73.30;;;;;;5112162;27;20019;-52
2022/04/23 00:22:04;;;;;;;40.72;34.95;;;13.10;73.20;;;;;;5110124;27;20079;-53
2022/04/23 00:24:31;;;;;;;45.78;38.88;;;13.10;73.40;;;;;;5110144;27;20384;-54
2022/04/23 00:26:57;;;;;;;42.38;36.53;;;13.00;73.80;;;;;;5131234;27;20644;-55
2022/04/23 00:29:22;;;;;;;42.03;36.95;;;12.90;74.30;;;;;;5110142;27;20059;-57
2022/04/23 00:31:48;;;;;;;44.20;37.95;;;12.90;74.50;;;;;;5130415;27;20127;-58
2022/04/23 00:34:14;;;;;;;43.47;38.10;;;12.90;74.70;;;;;;5129186;27;20020;-48
2022/04/23 00:36:40;;;;;;;47.70;40.30;;;12.90;74.90;;;;;;5128066;27;20629;-56
2022/04/23 00:39:06;;;;;;;49.30;41.50;;;13.00;74.90;;;;;;5112825;27;20029;-50
2022/04/23 00:41:45;;;;;;;46.67;40.05;;;13.00;74.90;;;;;;5103711;28;20621;-52
2022/04/23 00:44:13;;;;;;;51.78;41.03;;;13.00;74.80;;;;;;5088859;28;20104;-55
2022/04/23 00:46:40;;;;;;;54.13;43.05;;;13.00;74.70;;;;;;5068418;28;20051;-54
2022/04/23 00:49:06;;;;;;;52.75;42.20;;;13.00;74.90;;;;;;5087653;28;20507;-55
2022/04/23 00:51:35;;;;;;;50.28;41.38;;;12.90;75.20;;;;;;5086674;28;20024;-52
2022/04/23 00:54:07;;;;;;;53.95;43.72;;;12.80;75.40;;;;;;5086791;28;20027;-57
2022/04/23 00:56:34;;;;;;;64.50;45.60;;;12.90;75.50;;;;;;5090089;28;20024;-51
2022/04/23 00:59:01;;;;;;;57.55;45.13;;;12.90;75.50;;;;;;5071211;28;20028;-56
2022/04/23 01:01:26;;;;;;;48.47;43.10;;;12.80;76.50;;;;;;5087157;28;20099;-59
2022/04/23 01:03:53;;;;;;;55.20;46.15;;;12.90;75.80;;;;;;5086599;28;20059;-53
2022/04/23 01:06:20;;;;;;;53.95;44.15;;;12.90;75.80;;;;;;5085373;28;20020;-55
2022/04/23 01:08:46;;;;;;;56.03;45.72;;;12.90;75.80;;;;;;5088848;28;20136;-53
2022/04/23 01:11:13;;;;;;;55.42;46.03;;;12.90;75.90;;;;;;5085972;28;20031;-55
2022/04/23 01:13:38;;;;;;;53.15;45.58;;;12.80;76.00;;;;;;5086503;28;20046;-52
2022/04/23 01:16:09;;;;;;;54.00;44.05;;;12.80;76.20;;;;;;5086683;28;20600;-55
2022/04/23 01:18:39;;;;;;;63.70;48.78;;;12.80;76.50;;;;;;5088000;28;20016;-53
2022/04/23 01:21:08;;;;;;;66.97;50.38;;;12.80;76.40;;;;;;5085752;28;20020;-53
2022/04/23 01:23:37;;;;;;;62.60;50.20;;;12.80;76.40;;;;;;5089331;28;20385;-51
2022/04/23 01:26:03;;;;;;;58.60;49.45;;;12.80;76.60;;;;;;5088829;28;20521;-49
2022/04/23 01:28:33;;;;;;;58.78;48.03;;;12.80;76.50;;;;;;5086594;28;20477;-71
2022/04/23 01:31:00;;;;;;;61.05;48.45;;;12.90;76.70;;;;;;5084606;28;20035;-69
2022/04/23 01:33:28;;;;;;;57.60;48.33;;;12.80;76.70;;;;;;5088838;28;20028;-71
2022/04/23 01:35:54;;;;;;;59.00;48.13;;;12.80;76.70;;;;;;5088629;28;20028;-60
2022/04/23 01:38:20;;;;;;;62.83;50.63;;;12.90;76.70;;;;;;5083924;28;20438;-55
2022/04/23 01:40:46;;;;;;;66.05;51.53;;;12.90;76.50;;;;;;5086178;28;20495;-49
2022/04/23 01:43:13;;;;;;;61.13;49.97;;;12.80;77.10;;;;;;5085906;28;20040;-51
2022/04/23 01:45:39;;;;;;;65.60;50.58;;;12.80;76.90;;;;;;5085531;28;20118;-51
2022/04/23 01:48:05;;;;;;;65.10;50.90;;;12.70;77.00;;;;;;5084020;28;20028;-59
2022/04/23 01:50:32;;;;;;;65.30;52.90;;;12.70;77.20;;;;;;5067033;28;20036;-70
2022/04/23 01:52:58;;;;;;;65.65;52.72;;;12.70;77.50;;;;;;5086306;28;20130;-62
2022/04/23 01:55:23;;;;;;;71.53;52.97;;;12.70;77.40;;;;;;5088372;28;20043;-59
2022/04/23 01:57:49;;;;;;;70.72;54.25;;;12.60;77.50;;;;;;5085675;28;20520;-58
2022/04/23 02:00:15;;;;;;;73.63;55.75;;;12.70;77.60;;;;;;5086535;28;20027;-60
2022/04/23 02:02:41;;;;;;;80.00;59.40;;;12.60;77.70;;;;;;5085262;28;20060;-63
2022/04/23 02:05:08;;;;;;;76.60;57.70;;;12.60;77.80;;;;;;5085534;28;20103;-63
2022/04/23 02:07:38;;;;;;;78.32;59.75;;;12.60;78.00;;;;;;5085540;28;20062;-53
2022/04/23 02:10:12;;;;;;;71.45;58.72;;;12.50;78.10;;;;;;5085621;28;20032;-52
2022/04/23 02:12:39;;;;;;;72.43;58.65;;;12.50;78.30;;;;;;5087463;28;20020;-52
2022/04/23 02:15:07;;;;;;;73.93;57.28;;;12.60;78.30;;;;;;5084786;28;20017;-69
2022/04/23 02:17:39;;;;;;;80.35;58.03;;;12.60;78.00;;;;;;5083984;28;20082;-71
2022/04/23 02:20:08;;;;;;;74.63;57.65;;;12.60;77.90;;;;;;5085834;28;20016;-68
2022/04/23 02:22:34;;;;;;;72.30;58.42;;;12.60;78.00;;;;;;5093059;28;20096;-66
2022/04/23 02:25:01;;;;;;;76.90;58.42;;;12.60;78.20;;;;;;5092431;28;20058;-53
2022/04/23 02:27:30;;;;;;;72.82;55.38;;;12.60;78.00;;;;;;5094846;28;20517;-54
2022/04/23 02:29:57;;;;;;;73.50;56.03;;;12.60;77.90;;;;;;5093987;28;20039;-62
2022/04/23 02:32:23;;;;;;;71.95;55.08;;;12.60;77.60;;;;;;5090766;28;20631;-62
2022/04/23 02:34:49;;;;;;;70.20;54.50;;;12.60;77.50;;;;;;5093517;28;20056;-56
2022/04/23 02:37:15;;;;;;;69.28;55.70;;;12.60;77.40;;;;;;5090558;28;20024;-62
2022/04/23 02:39:41;;;;;;;67.72;54.55;;;12.50;77.60;;;;;;5089196;28;20034;-68
2022/04/23 02:42:11;;;;;;;65.28;51.05;;;12.50;77.80;;;;;;5111539;27;20161;-49
2022/04/23 02:44:37;;;;;;;69.63;52.40;;;12.60;77.80;;;;;;5131591;27;20019;-64
2022/04/23 02:47:04;;;;;;;64.53;49.70;;;12.60;77.60;;;;;;5130325;27;20027;-59
2022/04/23 02:49:31;;;;;;;66.95;52.55;;;12.50;77.40;;;;;;5130315;27;20012;-71
2022/04/23 02:51:57;;;;;;;70.40;53.10;;;12.60;77.30;;;;;;5129679;27;20034;-62
2022/04/23 02:54:23;;;;;;;65.07;50.65;;;12.50;77.10;;;;;;5132065;27;20019;-57
2022/04/23 02:56:50;;;;;;;63.85;49.20;;;12.40;77.30;;;;;;5129730;27;20319;-60
2022/04/23 02:59:16;;;;;;;63.25;48.90;;;12.40;77.50;;;;;;5130287;27;20022;-64
2022/04/23 03:01:42;;;;;;;59.95;46.33;;;12.40;77.70;;;;;;5129353;27;20023;-65
2022/04/23 03:04:10;;;;;;;65.03;50.65;;;12.40;77.90;;;;;;5130104;27;20075;-64
2022/04/23 03:06:36;;;;;;;60.22;47.47;;;12.40;78.30;;;;;;5129522;27;20038;-70
2022/04/23 03:09:03;;;;;;;58.85;46.33;;;12.40;77.50;;;;;;5111236;27;20546;-68
2022/04/23 03:11:30;;;;;;;57.63;45.78;;;12.30;77.40;;;;;;5130440;27;20126;-64
2022/04/23 03:14:03;;;;;;;57.63;45.05;;;12.30;77.40;;;;;;5129522;27;20071;-61
2022/04/23 03:16:31;;;;;;;61.90;45.47;;;12.30;77.50;;;;;;5130105;27;20031;-65
2022/04/23 03:18:57;;;;;;;56.17;43.92;;;12.20;77.50;;;;;;5129479;27;20469;-65
2022/04/23 03:21:25;;;;;;;59.97;46.30;;;12.20;77.40;;;;;;5111806;27;20361;-60
2022/04/23 03:23:52;;;;;;;58.25;45.38;;;12.30;77.50;;;;;;5129370;27;20020;-56
2022/04/23 03:26:18;;;;;;;56.90;44.15;;;12.40;77.20;;;;;;5129762;27;20089;-55
2022/04/23 03:28:44;;;;;;;54.85;42.55;;;12.40;76.80;;;;;;5129172;27;20102;-67
2022/04/23 03:31:12;;;;;;;56.67;42.85;;;12.50;76.60;;;;;;5093622;27;20055;-63
2022/04/23 03:33:39;;;;;;;53.65;42.13;;;12.50;76.40;;;;;;5128722;27;20019;-71
2022/04/23 03:36:07;;;;;;;54.50;41.97;;;12.50;76.20;;;;;;5131604;27;20016;-59
2022/04/23 03:38:33;;;;;;;52.85;42.65;;;12.50;76.80;;;;;;5130629;27;20015;-63
2022/04/23 03:41:00;;;;;;;51.97;40.95;;;12.40;76.00;;;;;;5110258;27;20023;-64
2022/04/23 03:43:27;;;;;;;54.83;42.42;;;12.40;76.10;;;;;;5129314;27;20130;-57
2022/04/23 03:45:54;;;;;;;52.88;41.15;;;12.40;75.90;;;;;;5131537;27;20127;-65
2022/04/23 03:48:21;;;;;;;52.60;40.65;;;12.40;75.70;;;;;;5129021;27;20023;-65
2022/04/23 03:50:48;;;;;;;52.30;42.08;;;12.40;75.70;;;;;;5109712;27;20106;-65
2022/04/23 03:53:15;;;;;;;50.97;40.70;;;12.40;75.60;;;;;;5129390;27;20048;-66
2022/04/23 03:55:41;;;;;;;52.88;40.80;;;12.40;75.70;;;;;;5109859;27;20019;-71
2022/04/23 03:58:08;;;;;;;48.53;38.15;;;12.40;75.60;;;;;;5128824;27;20027;-66
2022/04/23 04:00:34;;;;;;;59.33;43.20;;;12.40;75.40;;;;;;5128808;27;20071;-60
2022/04/23 04:03:00;;;;;;;52.67;42.30;;;12.20;75.50;;;;;;5109934;27;20130;-69
2022/04/23 04:05:26;;;;;;;47.15;39.00;;;12.20;75.80;;;;;;5128715;27;20031;-65
2022/04/23 04:07:52;;;;;;;48.47;38.50;;;12.30;75.90;;;;;;5127788;27;20034;-66
2022/04/23 04:10:19;;;;;;;51.72;40.55;;;12.20;75.60;;;;;;5129035;27;20023;-65
2022/04/23 04:12:46;;;;;;;51.30;39.83;;;12.20;76.00;;;;;;5128187;27;20034;-57
2022/04/23 04:15:15;;;;;;;44.40;36.92;;;12.30;75.70;;;;;;5128960;27;20043;-65
2022/04/23 04:17:41;;;;;;;48.05;40.13;;;12.30;75.60;;;;;;5127776;27;20042;-72
2022/04/23 04:20:13;;;;;;;48.65;39.22;;;12.30;75.30;;;;;;5109807;27;20492;-55
2022/04/23 04:22:40;;;;;;;49.72;39.63;;;12.30;75.30;;;;;;5129135;27;20031;-71
2022/04/23 04:25:07;;;;;;;48.03;37.85;;;12.30;75.30;;;;;;5129245;27;20075;-61
2022/04/23 04:27:34;;;;;;;46.58;37.53;;;12.20;75.00;;;;;;5112423;27;20023;-55
2022/04/23 04:30:03;;;;;;;45.92;37.97;;;12.20;75.30;;;;;;5129032;27;20030;-56
2022/04/23 04:32:29;;;;;;;50.25;36.78;;;12.20;76.10;;;;;;5130542;27;20031;-56
2022/04/23 04:34:55;;;;;;;53.78;38.83;;;12.20;75.40;;;;;;5112038;27;20129;-63
2022/04/23 04:37:36;;;;;;;48.38;39.95;;;12.20;75.40;;;;;;5130384;27;20047;-56
2022/04/23 04:40:07;;;;;;;45.22;37.88;;;12.30;75.30;;;;;;5128304;27;20132;-57
2022/04/23 04:42:33;;;;;;;44.28;37.53;;;12.20;75.20;;;;;;5094273;28;20068;-68
2022/04/23 04:44:58;;;;;;;42.47;35.25;;;12.20;75.30;;;;;;5085412;28;20260;-65
2022/04/23 04:47:24;;;;;;;45.75;37.05;;;12.20;75.00;;;;;;5088286;28;20020;-56
2022/04/23 04:49:50;;;;;;;43.15;36.63;;;12.10;74.70;;;;;;5088403;28;20572;-60
2022/04/23 04:52:15;;;;;;;47.20;35.55;;;12.10;74.90;;;;;;5088184;28;20031;-66
2022/04/23 04:54:41;;;;;;;41.42;34.85;;;12.10;75.10;;;;;;5087016;28;20020;-71
2022/04/23 04:57:07;;;;;;;44.63;35.28;;;12.10;75.00;;;;;;5087152;28;20035;-54
2022/04/23 04:59:32;;;;;;;43.42;35.08;;;12.00;74.60;;;;;;5085125;28;20114;-59
2022/04/23 05:02:02;;;;;;;39.55;33.25;;;12.10;74.80;;;;;;5085156;28;20106;-62
2022/04/23 05:04:28;;;;;;;41.17;34.65;;;12.10;74.60;;;;;;5085115;28;20035;-61
2022/04/23 05:06:54;;;;;;;44.03;35.50;;;12.10;74.80;;;;;;5085663;28;20020;-52
2022/04/23 05:09:19;;;;;;;44.28;34.85;;;12.20;74.50;;;;;;5089210;28;20020;-54
2022/04/23 05:11:45;;;;;;;43.08;35.05;;;12.10;74.40;;;;;;5088669;28;20066;-54
2022/04/23 05:14:11;;;;;;;42.35;33.40;;;12.10;74.50;;;;;;5086827;28;20024;-61
2022/04/23 05:16:37;;;;;;;41.63;32.92;;;12.10;74.40;;;;;;5086934;28;20148;-58
2022/04/23 05:19:04;;;;;;;40.20;33.00;;;12.10;74.70;;;;;;5084220;28;20073;-68
2022/04/23 05:21:30;;;;;;;38.92;32.03;;;12.20;74.40;;;;;;5087279;28;20097;-61
2022/04/23 05:23:56;;;;;;;38.22;31.00;;;12.20;74.40;;;;;;5086593;28;20016;-65
2022/04/23 05:26:21;;;;;;;36.30;30.48;;;12.20;73.90;;;;;;5086300;28;20469;-60
2022/04/23 05:28:47;;;;;;;37.30;29.80;;;12.30;73.80;;;;;;5085096;28;20028;-54
2022/04/23 05:31:13;;;;;;;34.30;29.35;;;12.30;73.20;;;;;;5087355;28;20475;-60
2022/04/23 05:33:40;;;;;;;37.55;30.13;;;12.40;73.20;;;;;;5084752;28;20500;-68
2022/04/23 05:36:09;;;;;;;32.55;27.90;;;12.50;72.80;;;;;;5088690;28;20027;-56
2022/04/23 05:38:37;;;;;;;34.70;28.30;;;12.40;71.80;;;;;;5085667;28;20526;-63
2022/04/23 05:41:04;;;;;;;34.05;28.25;;;12.30;72.00;;;;;;5084028;28;20120;-60
2022/04/23 05:43:29;;;;;;;32.90;28.20;;;12.30;72.10;;;;;;5106629;28;20043;-68
2022/04/23 05:45:57;;;;;;;31.45;27.30;;;12.30;72.30;;;;;;5105965;28;20034;-51
2022/04/23 05:48:23;;;;;;;36.42;29.25;;;12.40;71.90;;;;;;5107136;28;20030;-61
2022/04/23 05:50:49;;;;;;;34.78;28.00;;;12.50;71.40;;;;;;5109244;28;20019;-56
2022/04/23 05:53:15;;;;;;;32.97;27.27;;;12.50;70.60;;;;;;5106769;28;20034;-54
2022/04/23 05:55:41;;;;;;;31.95;26.25;;;12.40;70.80;;;;;;5109259;28;20091;-69
2022/04/23 05:58:07;;;;;;;30.75;26.65;;;12.50;71.00;;;;;;5113096;27;20487;-53
2022/04/23 06:03:18;;;;;;;31.48;26.88;;;12.50;70.90;;;;;;5113719;28;20062;-53
2022/04/23 06:05:43;;;;;;;32.35;26.13;;;12.60;70.40;;;;;;5112918;28;20080;-70
2022/04/23 06:08:09;;;;;;;33.30;27.10;;;12.70;70.10;;;;;;5112784;28;20027;-61
2022/04/23 06:10:36;;;;;;;36.33;27.63;;;12.70;69.90;;;;;;5109467;28;20035;-70
2022/04/23 06:13:02;;;;;;;29.10;25.38;;;12.60;69.60;;;;;;5113661;27;20028;-60
2022/04/23 06:15:28;;;;;;;34.78;27.58;;;12.60;69.40;;;;;;5114024;27;20019;-58
2022/04/23 06:17:53;;;;;;;29.20;25.40;;;12.50;69.60;;;;;;5115019;28;20489;-60
2022/04/23 06:20:19;;;;;;;33.38;26.95;;;12.40;69.60;;;;;;5115241;28;20092;-58
2022/04/23 06:22:45;;;;;;;30.50;25.90;;;12.40;69.80;;;;;;5111719;27;20023;-72
2022/04/23 06:25:10;;;;;;;31.80;26.52;;;12.30;69.70;;;;;;5114876;27;20489;-64
2022/04/23 06:27:37;;;;;;;29.48;24.85;;;12.30;69.90;;;;;;5116984;28;20023;-64
2022/04/23 06:30:04;;;;;;;28.20;23.92;;;12.40;70.00;;;;;;5113589;27;20447;-58
2022/04/23 06:32:30;;;;;;;30.10;25.15;;;12.50;69.60;;;;;;5115088;28;20476;-54
2022/04/23 06:34:56;;;;;;;30.38;25.85;;;12.60;69.20;;;;;;5115202;28;20031;-62
2022/04/23 06:37:22;;;;;;;36.08;26.20;;;12.60;68.90;;;;;;5117687;27;20076;-65
2022/04/23 06:39:50;;;;;;;30.48;24.90;;;12.60;68.50;;;;;;5117135;27;20046;-74
2022/04/23 06:42:16;;;;;;;30.73;25.63;;;12.60;68.50;;;;;;5105253;28;20532;-57
2022/04/23 06:44:42;;;;;;;28.52;24.10;;;12.60;68.70;;;;;;5095553;28;20051;-54
2022/04/23 06:47:08;;;;;;;32.05;26.17;;;12.60;68.80;;;;;;5096990;28;20028;-56
2022/04/23 06:49:34;;;;;;;29.67;24.75;;;12.70;68.50;;;;;;5097432;28;20032;-56
2022/04/23 06:51:59;;;;;;;32.40;25.45;;;12.70;68.10;;;;;;5096478;28;20024;-53
2022/04/23 06:54:25;;;;;;;32.70;27.85;;;12.70;68.80;;;;;;5095857;28;20073;-53
2022/04/23 06:56:52;;;;;;;33.97;25.42;;;12.80;68.30;;;;;;5096141;28;20024;-57
2022/04/23 06:59:17;;;;;;;30.23;25.85;;;12.80;67.90;;;;;;5097325;28;20123;-55
2022/04/23 07:01:43;;;;;;;34.70;25.55;;;12.70;67.70;;;;;;5095782;28;20048;-60
2022/04/23 07:04:10;;;;;;;32.72;26.17;;;12.80;68.00;;;;;;5094993;28;20031;-51
2022/04/23 07:06:36;;;;;;;31.52;26.45;;;12.90;67.70;;;;;;5095995;28;20028;-60
2022/04/23 07:09:03;;;;;;;31.13;26.13;;;12.90;67.60;;;;;;5093570;28;20020;-54
2022/04/23 07:11:29;;;;;;;32.53;26.67;;;12.90;67.40;;;;;;5092724;28;20116;-52
2022/04/23 07:13:55;;;;;;;34.72;27.90;;;13.00;67.80;;;;;;5092262;28;20568;-54
2022/04/23 07:16:21;;;;;;;31.20;27.60;;;13.10;67.00;;;;;;5093010;28;20111;-59
2022/04/23 07:18:47;;;;;;;35.97;29.77;;;13.00;66.50;;;;;;5094208;28;20020;-67
2022/04/23 07:21:13;;;;;;;31.77;27.88;;;13.00;66.90;;;;;;5092350;28;20457;-57
2022/04/23 07:26:23;;;;;;;35.88;29.58;;;13.00;66.70;;;;;;5093828;28;20035;-52
2022/04/23 07:28:48;;;;;;;35.25;28.63;;;13.00;66.90;;;;;;5093518;28;20036;-72
2022/04/23 07:31:14;;;;;;;33.42;29.35;;;13.10;66.90;;;;;;5091901;28;20027;-55
2022/04/23 07:39:09;;;;;;;33.65;28.58;;;13.40;66.70;;;;;;5092902;28;20277;-53
2022/04/23 07:41:34;;;;;;;34.90;28.13;;;13.50;66.20;;;;;;5099197;27;20479;-65
2022/04/23 07:44:00;;;;;;;31.15;26.65;;;13.50;65.80;;;;;;5114820;27;20051;-53
2022/04/23 07:46:26;;;;;;;31.63;27.42;;;13.60;65.70;;;;;;5115715;27;20049;-56
2022/04/23 07:48:51;;;;;;;32.22;28.58;;;13.50;65.90;;;;;;5133906;27;20030;-71
2022/04/23 07:51:20;;;;;;;32.58;29.08;;;13.70;65.60;;;;;;5134664;27;20031;-55
2022/04/23 07:53:48;;;;;;;35.40;30.52;;;13.70;65.00;;;;;;5134542;27;20090;-54
2022/04/23 07:56:14;;;;;;;34.83;29.05;;;13.70;64.80;;;;;;5115251;27;20050;-54
2022/04/23 07:58:41;;;;;;;33.92;29.38;;;13.80;65.20;;;;;;5134115;27;20427;-51
2022/04/23 08:01:07;;;;;;;35.20;29.45;;;13.90;64.60;;;;;;5133415;27;20050;-54
2022/04/23 08:03:33;;;;;;;33.08;28.98;;;13.90;64.20;;;;;;5115550;27;20051;-56
2022/04/23 08:05:59;;;;;;;34.40;30.25;;;14.00;64.20;;;;;;5133489;27;20027;-52
2022/04/23 08:08:25;;;;;;;35.60;29.13;;;14.10;64.40;;;;;;5115707;27;20023;-58
2022/04/23 08:10:51;;;;;;;35.33;29.80;;;14.30;64.00;;;;;;5115390;27;20023;-68
2022/04/23 08:13:17;;;;;;;35.53;31.15;;;14.50;63.30;;;;;;5133709;27;20022;-58
2022/04/23 08:15:43;;;;;;;33.60;29.98;;;14.50;62.60;;;;;;5133886;27;20384;-59
2022/04/23 08:18:08;;;;;;;33.53;29.10;;;14.40;62.30;;;;;;5133291;27;20413;-59
2022/04/23 08:20:35;;;;;;;33.55;28.77;;;14.60;62.40;;;;;;5133615;27;20528;-54
2022/04/23 08:23:02;;;;;;;37.70;31.27;;;14.90;61.80;;;;;;5132931;27;20051;-60
2022/04/23 08:25:28;;;;;;;34.22;28.42;;;14.80;61.00;;;;;;5133659;27;20114;-57
2022/04/23 08:30:34;;;;;;;30.73;27.42;;;14.90;61.40;;;;;;5133169;27;20517;-71
2022/04/23 08:30:43;;;;;;;33.38;28.55;;;15.40;61.00;;;;;;5133178;27;20390;-50
2022/04/23 08:33:10;;;;;;;34.53;27.85;;;15.80;59.50;;;;;;5114522;27;20027;-54
2022/04/23 08:35:38;;;;;;;34.47;28.10;;;16.10;58.50;;;;;;5133334;27;20046;-51
2022/04/23 08:38:04;;;;;;;34.13;28.05;;;16.40;57.80;;;;;;5114724;27;20023;-50
2022/04/23 08:40:41;;;;;;;32.38;28.85;;;16.60;57.00;;;;;;5133124;27;20020;-52
2022/04/23 08:43:07;;;;;;;36.60;29.98;;;16.50;55.80;;;;;;5132475;27;20043;-54
2022/04/23 08:45:36;;;;;;;36.40;30.73;;;16.40;56.20;;;;;;5114608;27;20110;-51
2022/04/23 08:48:09;;;;;;;34.10;30.30;;;16.30;56.80;;;;;;5132151;27;20047;-52
2022/04/23 08:50:38;;;;;;;30.73;27.48;;;16.40;55.90;;;;;;5133111;27;20496;-54
2022/04/23 08:53:27;;;;;;;32.25;28.40;;;16.50;56.60;;;;;;5113684;27;20042;-50
2022/04/23 08:55:54;;;;;;;32.83;28.55;;;16.70;56.00;;;;;;5133064;27;20041;-52
2022/04/23 08:58:20;;;;;;;33.20;28.83;;;17.00;55.30;;;;;;5132411;27;20102;-56
2022/04/23 09:00:46;;;;;;;33.47;29.88;;;17.20;54.90;;;;;;5132599;27;20102;-54
2022/04/23 09:03:16;;;;;;;33.42;28.48;;;17.20;53.40;;;;;;5131765;27;20495;-66
2022/04/23 09:05:43;;;;;;;31.27;27.90;;;17.00;54.40;;;;;;5114274;27;20060;-53
2022/04/23 09:08:09;;;;;;;30.63;27.13;;;17.10;54.50;;;;;;5113516;27;20026;-69
2022/04/23 09:10:46;;;;;;;34.38;30.75;;;17.50;53.60;;;;;;5081009;27;20027;-74
2022/04/23 09:13:25;;;;;;;33.58;28.15;;;17.70;52.90;;;;;;5127132;27;20034;-52
2022/04/23 09:24:49;;;;;;;33.47;29.90;;;18.30;51.10;;;;;;5125943;27;20099;-56
2022/04/23 09:27:16;;;;;;;29.30;26.20;;;18.30;50.40;;;;;;5094828;27;20475;-69
2022/04/23 09:29:58;;;;;;;29.48;26.33;;;18.40;51.50;;;;;;5108154;27;20015;-56
2022/04/23 09:32:23;;;;;;;33.15;29.00;;;18.90;50.20;;;;;;5125597;27;20156;-58
2022/04/23 09:35:06;;;;;;;33.03;28.45;;;19.10;49.40;;;;;;5126292;27;20105;-56
2022/04/23 09:40:16;;;;;;;;;;;19.30;48.50;;;;;;5130836;27;20421;-56
2022/04/23 09:42:58;;;;;;;31.02;27.67;;;19.70;48.10;;;;;;5094960;28;20395;-53
2022/04/23 09:45:28;;;;;;;32.35;28.00;;;20.00;47.40;;;;;;5081020;28;20024;-69
2022/04/23 09:48:17;;;;;;;29.30;26.10;;;20.30;46.90;;;;;;5076896;28;20020;-72
2022/04/23 09:50:45;;;;;;;31.52;28.27;;;20.60;46.50;;;;;;5089424;28;20027;-61
2022/04/23 09:53:17;;;;;;;31.95;28.55;;;20.60;44.90;;;;;;5086858;28;20187;-52
2022/04/23 09:55:45;;;;;;;30.05;26.85;;;20.60;45.60;;;;;;5089366;28;20024;-58
2022/04/23 09:58:12;;;;;;;29.95;26.75;;;20.40;46.10;;;;;;5088700;28;20073;-51
2022/04/23 10:00:49;;;;;;;30.92;27.63;;;20.50;44.90;;;;;;5090596;28;20024;-52
2022/04/23 10:03:15;;;;;;;37.65;33.65;;;20.50;45.60;;;;;;5085691;28;20024;-50
2022/04/23 10:05:49;;;;;;;30.60;27.58;;;20.70;45.50;;;;;;5088956;28;20035;-54
2022/04/23 10:08:17;;;;;;;31.08;26.88;;;20.90;44.90;;;;;;5084116;28;20020;-67
2022/04/23 10:10:45;;;;;;;32.95;29.30;;;21.00;44.40;;;;;;5084065;28;20043;-55
2022/04/23 10:13:15;;;;;;;33.13;29.77;;;20.40;44.80;;;;;;5079061;28;20031;-70
2022/04/23 10:15:43;;;;;;;31.15;26.80;;;20.30;45.50;;;;;;5087602;28;20103;-55
2022/04/23 10:18:10;;;;;;;29.90;26.70;;;20.40;45.50;;;;;;5089067;28;20024;-53
2022/04/23 10:20:40;;;;;;;29.70;26.63;;;20.40;45.70;;;;;;5068618;28;20543;-72
2022/04/23 10:23:30;;;;;;;29.02;26.05;;;20.50;45.30;;;;;;5080923;28;20020;-68
2022/04/23 10:26:20;;;;;;;28.80;25.90;;;20.70;45.20;;;;;;5083930;28;20093;-57
2022/04/23 10:28:48;;;;;;;34.08;27.15;;;20.90;44.60;;;;;;5086042;28;20035;-57
2022/04/23 10:31:16;;;;;;;30.92;27.55;;;20.90;44.70;;;;;;5085573;28;20024;-66
2022/04/23 10:33:49;;;;;;;32.65;29.27;;;20.80;44.60;;;;;;5066198;28;20024;-71
2022/04/23 10:36:16;;;;;;;32.28;28.98;;;20.30;44.90;;;;;;5082948;28;20024;-66
2022/04/23 10:39:21;;;;;;;33.90;30.33;;;19.70;46.20;;;;;;5048124;28;20529;-59
2022/04/23 10:41:49;;;;;;;;;;;19.20;47.00;;;;;;5096666;27;20039;-68
2022/04/23 10:44:21;;;;;;;34.03;30.40;;;19.00;48.10;;;;;;5107868;27;19904;-56
2022/04/23 10:46:47;;;;;;;32.42;28.92;;;19.10;48.20;;;;;;5114156;27;20039;-53
2022/04/23 10:49:14;;;;;;;34.55;27.80;;;19.30;47.70;;;;;;5113798;27;20077;-58
2022/04/23 10:51:47;;;;;;;29.23;26.23;;;19.20;47.60;;;;;;5106601;27;20492;-50
2022/04/23 10:54:19;;;;;;;33.17;29.80;;;19.40;47.70;;;;;;5105838;27;20027;-53
2022/04/23 10:56:53;;;;;;;34.20;30.63;;;19.70;47.30;;;;;;5097251;27;20019;-57
2022/04/23 10:59:48;;;;;;;33.55;29.95;;;19.70;46.50;;;;;;5090205;27;20069;-57
2022/04/23 11:02:20;;;;;;;37.67;33.65;;;19.30;47.30;;;;;;5112574;27;20169;-69
2022/04/23 11:13:27;;;;;;;39.08;31.70;;;19.60;47.00;;;;;;5133553;27;20444;-56
2022/04/23 11:16:26;;;;;;;35.92;31.08;;;19.50;47.30;;;;;;5133974;27;20098;-58
2022/04/23 11:18:53;;;;;;;32.05;28.65;;;19.60;47.50;;;;;;5060671;27;20038;-55
2022/04/23 11:21:31;;;;;;;32.50;29.00;;;19.70;47.40;;;;;;5114156;27;20038;-60
2022/04/23 11:24:01;;;;;;;31.48;28.10;;;19.70;47.30;;;;;;5132637;27;20011;-51
2022/04/23 11:26:46;;;;;;;39.33;35.05;;;19.70;47.60;;;;;;5114391;27;20027;-59
2022/04/23 11:29:13;;;;;;;32.72;29.33;;;19.70;47.20;;;;;;5132911;27;20019;-54
2022/04/23 11:31:39;;;;;;;29.05;26.08;;;19.70;47.30;;;;;;5114546;27;20103;-52
2022/04/23 11:34:05;;;;;;;32.22;28.80;;;19.80;47.30;;;;;;5113522;27;20076;-56
2022/04/23 11:36:36;;;;;;;30.35;27.15;;;19.90;46.90;;;;;;5132978;27;20544;-56
2022/04/23 11:39:10;;;;;;;30.15;26.95;;;19.80;46.90;;;;;;5097803;27;20023;-53
2022/04/23 11:41:36;;;;;;;;;;;19.70;47.00;;;;;;5133770;27;20043;-52
2022/04/23 11:47:10;;;;;;;28.67;25.67;;;19.20;47.60;;;;;;5129224;27;20115;-53
2022/04/23 11:49:36;;;;;;;29.42;26.33;;;19.40;48.00;;;;;;5111478;27;20051;-62
2022/04/23 11:52:17;;;;;;;32.15;28.65;;;19.50;47.80;;;;;;5131555;27;20069;-61
2022/04/23 11:55:35;;;;;;;33.15;29.52;;;19.70;47.50;;;;;;5114601;27;20460;-52
2022/04/23 11:58:09;;;;;;;29.08;25.55;;;19.80;46.70;;;;;;5110771;27;20042;-66
2022/04/23 12:00:37;;;;;;;28.35;25.38;;;19.70;47.00;;;;;;5133035;27;20035;-56
2022/04/23 12:03:03;;;;;;;31.50;28.15;;;19.90;47.30;;;;;;5113556;27;20492;-53
2022/04/23 12:05:34;;;;;;;31.63;28.42;;;20.00;46.50;;;;;;5115857;27;20027;-60
2022/04/23 12:08:00;;;;;;;31.55;28.25;;;19.80;46.70;;;;;;5114101;27;20034;-52
2022/04/23 12:10:32;;;;;;;30.63;27.15;;;19.80;47.20;;;;;;5115113;27;20392;-57
2022/04/23 12:13:08;;;;;;;;;;;19.80;47.40;;;;;;5114997;27;20416;-59
2022/04/23 12:15:46;;;;;;;27.00;23.83;;;19.90;46.50;;;;;;5132857;27;19910;-54
2022/04/23 12:18:19;;;;;;;27.00;23.92;;;19.80;46.40;;;;;;5110868;27;20021;-54
2022/04/23 12:20:45;;;;;;;27.30;24.40;;;19.90;46.20;;;;;;5114068;27;20476;-53
2022/04/23 12:23:11;;;;;;;28.00;24.98;;;19.90;46.50;;;;;;5131545;27;20034;-62
2022/04/23 12:25:37;;;;;;;27.48;24.67;;;19.90;46.50;;;;;;5132828;27;20130;-54
2022/04/23 12:42:06;;;;;;;27.45;24.52;;;19.70;47.40;;;;;;5130957;27;20133;-57
2022/04/23 12:44:34;;;;;;;33.92;26.52;;;19.30;48.00;;;;;;5131193;27;20051;-60
2022/04/23 12:47:04;;;;;;;29.08;26.08;;;18.90;49.00;;;;;;5131419;27;20468;-56
2022/04/23 12:49:55;;;;;;;29.85;26.85;;;18.60;49.70;;;;;;5113437;27;20128;-56
2022/04/23 12:52:23;;;;;;;30.63;26.80;;;18.40;50.20;;;;;;5113476;27;20052;-55
2022/04/23 12:55:17;;;;;;;31.50;28.15;;;18.30;50.80;;;;;;5131465;27;20034;-56
2022/04/23 12:58:00;;;;;;;32.85;29.55;;;18.20;51.60;;;;;;5112502;27;20019;-58
2022/04/23 13:00:26;;;;;;;32.78;29.30;;;18.30;51.90;;;;;;5113152;27;20020;-53
2022/04/23 13:03:00;;;;;;;33.03;29.42;;;18.40;51.90;;;;;;5131136;27;20472;-67
2022/04/23 13:05:27;;;;;;;32.53;29.02;;;18.40;51.80;;;;;;5112293;28;20027;-58
2022/04/23 13:10:39;;;;;;;29.60;26.60;;;18.60;52.00;;;;;;5131952;27;20077;-55
2022/04/23 13:13:07;;;;;;;28.55;25.45;;;18.90;51.50;;;;;;5112070;27;20067;-63
2022/04/23 13:15:37;;;;;;;24.38;21.50;;;19.40;50.50;;;;;;5130095;27;20099;-53
2022/04/23 13:18:04;;;;;;;24.70;21.95;;;19.40;49.60;;;;;;5131201;27;20019;-54
2022/04/23 13:20:30;;;;;;;26.38;23.67;;;19.40;48.90;;;;;;5131227;27;20019;-64
2022/04/23 13:22:58;;;;;;;27.92;24.45;;;19.20;49.40;;;;;;5130599;27;20488;-68
2022/04/23 13:25:25;;;;;;;27.80;24.40;;;19.10;49.90;;;;;;5112420;27;20125;-59